Hiawassee, Florida
Current Conditions -  °F | °C
As of 1:53 PM on Sunday 21 Dec 2014 (Local Time) from KORL Reporting Station
Clear Clear  
Wind Chill: 26°   Ceiling: Unl
Heat Index: 26°   Visibility: 10mi
Dew Point: 16°   Wind: 10mph
Humidity: 56%   Direction: 200°SSW
Pressure: 30.02"   Gusts: NA
Location:  28.5867°N, 81.4891°W
Report Text: KORL 211853Z 20009KT 10SM CLR 26/16 A3002 RMK AO2 SLP167 T02560161
Loading
Personal Weather Stations






























Interactive Weather Map New forecast layout! Learn more

10-Day Weather Forecast

Advertisements
Track Severe Weather on mobile